Time;durP1;ratioP1;P1;durP2;ratioP2;P2;SDS_P1;SDS_P2;PMS_P1;PMS_P2;Temp;Humidity;BMP_temperature;BMP_pressure;BME280_temperature;BME280_humidity;BME280_pressure;Samples;Min_cycle;Max_cycle;Signal;HPM_P1;HPM_P2
2020/12/30 00:00:35;;;;;;;32.20;19.85;;;;;;;5.77;75.65;97765.94;6195491;23;20072;-84
2020/12/30 00:03:01;;;;;;;35.92;20.40;;;;;;;5.76;75.93;97759.06;6217451;23;20020;-84
2020/12/30 00:05:28;;;;;;;36.13;21.10;;;;;;;5.77;75.79;97758.97;6193055;23;20479;-84
2020/12/30 00:07:54;;;;;;;32.70;20.45;;;;;;;5.76;75.48;97764.28;6196226;23;20027;-84
2020/12/30 00:10:22;;;;;;;37.05;20.00;;;;;;;5.74;75.19;97769.63;6166652;23;20471;-84
2020/12/30 00:12:48;;;;;;;34.67;19.02;;;;;;;5.74;75.71;97765.25;6160706;23;20024;-87
2020/12/30 00:15:16;;;;;;;34.28;19.10;;;;;;;5.71;75.26;97765.44;6160293;23;20468;-84
2020/12/30 00:17:43;;;;;;;30.02;19.60;;;;;;;5.72;75.38;97766.28;6186625;23;20459;-87
2020/12/30 00:20:13;;;;;;;36.50;19.65;;;;;;;5.69;75.55;97767.31;6174716;23;20025;-87
2020/12/30 00:22:40;;;;;;;35.42;21.02;;;;;;;5.68;75.71;97759.59;6161168;23;20024;-87
2020/12/30 00:25:07;;;;;;;30.92;19.10;;;;;;;5.68;75.44;97751.78;6160924;23;20044;-87
2020/12/30 00:27:34;;;;;;;32.47;18.85;;;;;;;5.66;75.52;97753.66;6161018;23;20025;-87
2020/12/30 00:30:00;;;;;;;29.85;18.73;;;;;;;5.66;75.61;97764.09;6161323;23;20025;-87
2020/12/30 00:32:26;;;;;;;32.30;18.15;;;;;;;5.66;75.49;97764.09;6186565;23;20496;-86
2020/12/30 00:34:52;;;;;;;30.88;19.13;;;;;;;5.64;75.50;97766.78;6187286;23;20021;-87
2020/12/30 00:37:18;;;;;;;27.33;17.75;;;;;;;5.64;75.50;97768.59;6161250;23;20025;-87
2020/12/30 00:39:45;;;;;;;29.50;18.20;;;;;;;5.65;75.70;97780.69;6161200;23;20085;-87
2020/12/30 00:42:11;;;;;;;30.13;18.98;;;;;;;5.63;75.36;97775.56;6160396;23;20028;-87
2020/12/30 00:44:37;;;;;;;32.47;19.25;;;;;;;5.63;75.86;97777.34;6160445;23;20028;-85
2020/12/30 00:47:03;;;;;;;34.13;18.88;;;;;;;5.64;75.68;97773.81;6186051;23;20021;-84
2020/12/30 00:49:29;;;;;;;30.75;18.70;;;;;;;5.63;75.78;97775.56;6159967;23;20031;-84
2020/12/30 00:51:57;;;;;;;34.00;19.05;;;;;;;5.61;75.57;97780.91;6185402;23;20017;-85
2020/12/30 00:54:24;;;;;;;30.20;18.60;;;;;;;5.64;75.97;97794.69;6186073;23;20021;-84
2020/12/30 00:56:51;;;;;;;29.55;17.48;;;;;;;5.64;75.71;97794.69;6186233;23;20035;-84
2020/12/30 00:59:18;;;;;;;31.83;19.73;;;;;;;5.63;75.47;97804.28;6186019;23;20021;-83
2020/12/30 01:01:50;;;;;;;31.33;17.02;;;;;;;5.61;74.99;97801.78;6185685;23;20029;-84
2020/12/30 01:04:18;;;;;;;26.20;16.80;;;;;;;5.64;75.56;97805.94;6161877;23;20028;-84
2020/12/30 01:06:52;;;;;;;28.83;17.08;;;;;;;5.64;75.11;97813.78;6162003;23;20251;-84
2020/12/30 01:09:20;;;;;;;29.88;17.13;;;;;;;5.65;75.77;97809.41;6161587;23;20028;-84
2020/12/30 01:11:46;;;;;;;28.10;17.67;;;;;;;5.65;75.70;97817.25;6186540;23;20024;-84
2020/12/30 01:14:12;;;;;;;27.42;16.90;;;;;;;5.64;75.58;97811.16;6187371;23;20029;-85
2020/12/30 01:16:39;;;;;;;29.85;17.02;;;;;;;5.64;75.63;97815.56;6161935;23;20049;-84
2020/12/30 01:19:06;;;;;;;22.67;15.95;;;;;;;5.63;75.54;97817.34;6187370;23;20025;-84
2020/12/30 01:21:42;;;;;;;24.33;17.15;;;;;;;5.61;74.71;97822.66;6161945;23;20017;-85
2020/12/30 01:24:09;;;;;;;26.05;16.65;;;;;;;5.63;75.44;97821.72;6188016;23;20021;-84
2020/12/30 01:26:36;;;;;;;26.98;17.13;;;;;;;5.62;75.39;97831.34;6161836;23;20025;-85
2020/12/30 01:29:04;;;;;;;28.85;17.95;;;;;;;5.60;75.33;97826.22;6161791;23;20049;-86
2020/12/30 01:31:32;;;;;;;26.17;16.63;;;;;;;5.61;75.60;97834.88;6162341;23;20025;-85
2020/12/30 01:33:59;;;;;;;29.05;16.40;;;;;;;5.59;75.57;97837.59;6162319;23;20036;-87
2020/12/30 01:36:25;;;;;;;31.13;16.75;;;;;;;5.58;75.36;97835.91;6162900;23;20352;-88
2020/12/30 01:38:53;;;;;;;33.10;18.70;;;;;;;5.57;75.33;97836.03;6162736;23;20025;-87
2020/12/30 01:41:21;;;;;;;27.95;18.40;;;;;;;5.55;75.40;97833.53;6186795;23;20024;-84
2020/12/30 01:43:56;;;;;;;26.88;16.20;;;;;;;5.50;74.86;97843.44;6187418;23;20452;-84
2020/12/30 01:46:44;;;;;;;26.77;17.00;;;;;;;5.47;74.18;97838.41;6161636;23;20333;-84
2020/12/30 01:49:13;;;;;;;36.17;17.65;;;;;;;5.49;75.20;97833.94;6161511;23;20028;-84
2020/12/30 01:51:43;;;;;;;31.70;17.73;;;;;;;5.47;75.18;97836.63;6187313;23;20024;-84
2020/12/30 01:54:13;;;;;;;27.17;17.23;;;;;;;5.46;74.96;97834.97;6161239;23;20028;-85
2020/12/30 01:56:41;;;;;;;29.05;17.17;;;;;;;5.47;75.82;97839.25;6187534;23;20025;-84
2020/12/30 01:59:26;;;;;;;26.35;16.75;;;;;;;5.46;75.82;97834.97;6161356;23;20021;-85
2020/12/30 02:01:57;;;;;;;29.95;17.88;;;;;;;5.46;75.70;97832.34;6161412;23;20025;-84
2020/12/30 02:04:25;;;;;;;28.67;17.23;;;;;;;5.49;75.75;97828.69;6161015;23;20024;-85
2020/12/30 02:06:51;;;;;;;29.83;17.25;;;;;;;5.48;75.71;97833.09;6161300;23;20025;-84
2020/12/30 02:09:18;;;;;;;29.92;17.80;;;;;;;5.48;75.37;97840.09;6161103;23;20028;-84
2020/12/30 02:11:47;;;;;;;24.95;16.33;;;;;;;5.48;75.33;97827.03;6187449;23;20383;-84
2020/12/30 02:14:13;;;;;;;31.50;18.42;;;;;;;5.46;75.72;97837.56;6186129;23;20021;-84
2020/12/30 02:16:53;;;;;;;26.30;17.60;;;;;;;5.44;75.12;97836.00;6187370;23;20025;-84
2020/12/30 02:19:20;;;;;;;27.23;17.23;;;;;;;5.47;75.71;97839.25;6160901;23;20025;-84
2020/12/30 02:21:47;;;;;;;29.90;17.88;;;;;;;5.46;75.48;97840.19;6161188;23;20024;-84
2020/12/30 02:24:33;;;;;;;31.73;18.33;;;;;;;5.43;74.79;97836.97;6161080;23;20024;-84
2020/12/30 02:27:00;;;;;;;34.30;17.67;;;;;;;5.45;75.66;97842.91;6186966;23;20463;-84
2020/12/30 02:29:28;;;;;;;29.55;18.80;;;;;;;5.46;75.67;97844.59;6187148;23;20343;-85
2020/12/30 02:31:54;;;;;;;30.23;18.23;;;;;;;5.46;75.65;97849.81;6160852;23;20017;-85
2020/12/30 02:34:21;;;;;;;27.85;17.95;;;;;;;5.46;75.70;97845.41;6160626;23;20028;-85
2020/12/30 02:36:48;;;;;;;30.40;17.20;;;;;;;5.45;75.59;97842.91;6187248;23;20021;-84
2020/12/30 02:39:14;;;;;;;27.40;17.40;;;;;;;5.44;75.28;97834.25;6187076;23;20021;-84
2020/12/30 02:41:41;;;;;;;27.90;18.75;;;;;;;5.43;75.08;97836.97;6160753;23;20028;-84
2020/12/30 02:44:07;;;;;;;32.47;19.30;;;;;;;5.40;74.98;97840.59;6186791;23;20025;-84
2020/12/30 02:46:34;;;;;;;32.13;19.70;;;;;;;5.37;74.79;97848.63;6187117;23;20048;-84
2020/12/30 02:49:00;;;;;;;30.00;18.33;;;;;;;5.34;74.99;97848.81;6185542;23;20351;-84
2020/12/30 02:51:26;;;;;;;32.28;19.20;;;;;;;5.31;74.98;97855.09;6186501;23;20021;-84
2020/12/30 02:53:52;;;;;;;33.38;20.15;;;;;;;5.27;75.04;97858.84;6186393;23;20032;-84
2020/12/30 02:56:19;;;;;;;33.33;19.77;;;;;;;5.24;74.98;97861.66;6187110;23;20044;-85
2020/12/30 02:58:48;;;;;;;31.73;19.08;;;;;;;5.20;74.63;97860.19;6186537;23;20032;-85
2020/12/30 03:01:16;;;;;;;32.63;19.13;;;;;;;5.19;75.37;97856.75;6160935;23;20420;-84
2020/12/30 03:03:43;;;;;;;33.88;18.98;;;;;;;5.18;75.19;97859.44;6160612;23;20028;-85
2020/12/30 03:06:10;;;;;;;27.55;17.83;;;;;;;5.16;75.22;97859.53;6186981;23;20029;-86
2020/12/30 03:08:37;;;;;;;34.78;19.27;;;;;;;5.14;75.32;97860.56;6160825;23;20029;-85
2020/12/30 03:11:05;;;;;;;31.23;18.67;;;;;;;5.11;75.15;97861.63;6160549;23;20468;-85
2020/12/30 03:13:32;;;;;;;31.83;19.92;;;;;;;5.08;75.26;97865.25;6186441;23;20081;-84
2020/12/30 03:15:58;;;;;;;32.03;19.95;;;;;;;5.07;75.37;97863.59;6160651;23;20028;-85
2020/12/30 03:18:24;;;;;;;37.85;20.05;;;;;;;5.05;75.22;97865.47;6160581;23;20021;-85
2020/12/30 03:20:50;;;;;;;33.88;20.17;;;;;;;5.04;75.40;97871.63;6186654;23;20025;-85
2020/12/30 03:23:16;;;;;;;36.55;21.20;;;;;;;5.02;75.02;97865.69;6186299;23;20021;-85
2020/12/30 03:25:43;;;;;;;35.55;21.33;;;;;;;5.02;75.19;97865.69;6186652;23;20029;-85
2020/12/30 03:28:09;;;;;;;34.13;20.92;;;;;;;5.00;75.00;97872.75;6160543;23;20053;-85
2020/12/30 03:30:36;;;;;;;35.35;19.95;;;;;;;4.98;75.31;97879.84;6160188;23;20028;-85
2020/12/30 03:33:02;;;;;;;39.13;21.55;;;;;;;4.96;74.65;97889.53;6185930;23;20456;-85
2020/12/30 03:35:28;;;;;;;35.80;20.83;;;;;;;4.93;75.17;97880.13;6186592;23;20021;-85
2020/12/30 03:37:55;;;;;;;37.53;20.48;;;;;;;4.91;75.26;97871.59;6160720;23;20028;-85
2020/12/30 03:40:21;;;;;;;39.80;21.02;;;;;;;4.90;75.07;97882.09;6160003;23;20519;-85
2020/12/30 03:42:47;;;;;;;35.17;19.92;;;;;;;4.88;75.09;97876.13;6159648;23;20017;-85
2020/12/30 03:45:14;;;;;;;37.00;21.05;;;;;;;4.85;75.15;97878.97;6186155;23;20025;-85
2020/12/30 03:47:40;;;;;;;34.70;21.48;;;;;;;4.85;75.31;97881.56;6185158;23;20021;-85
2020/12/30 03:50:07;;;;;;;37.45;19.45;;;;;;;4.82;75.35;97880.81;6158362;23;20033;-85
2020/12/30 03:52:33;;;;;;;37.90;22.00;;;;;;;4.80;75.10;97876.63;6186022;23;20025;-84
2020/12/30 03:55:00;;;;;;;35.25;20.48;;;;;;;4.76;74.94;97883.81;6160731;23;20021;-85
2020/12/30 03:57:26;;;;;;;37.30;20.40;;;;;;;4.72;74.90;97887.56;6186011;23;20025;-85
2020/12/30 03:59:52;;;;;;;33.15;20.02;;;;;;;4.72;75.24;97892.78;6185981;23;20486;-84
2020/12/30 04:02:18;;;;;;;37.42;22.33;;;;;;;4.69;75.12;97892.97;6160013;23;20017;-85
2020/12/30 04:04:44;;;;;;;34.33;21.10;;;;;;;4.65;74.86;97887.09;6160475;23;20032;-85
2020/12/30 04:07:11;;;;;;;39.47;22.48;;;;;;;4.62;74.79;97889.06;6186326;23;20325;-84
2020/12/30 04:09:37;;;;;;;39.30;22.35;;;;;;;4.57;75.07;97891.97;6185899;23;20053;-85
2020/12/30 04:12:03;;;;;;;40.83;22.65;;;;;;;4.55;75.09;97892.06;6160094;23;20043;-84
2020/12/30 04:14:30;;;;;;;37.75;23.23;;;;;;;4.51;75.13;97895.78;6159866;23;20466;-85
2020/12/30 04:16:56;;;;;;;39.25;22.02;;;;;;;4.48;75.03;97908.19;6186271;23;20021;-85
2020/12/30 04:19:22;;;;;;;38.60;22.05;;;;;;;4.42;75.19;97898.97;6185763;23;20460;-85
2020/12/30 04:21:49;;;;;;;36.55;21.73;;;;;;;4.40;75.43;97909.47;6160066;23;20024;-84
2020/12/30 04:24:15;;;;;;;40.17;21.95;;;;;;;4.37;75.71;97917.47;6186369;23;20024;-85
2020/12/30 04:26:41;;;;;;;39.38;21.60;;;;;;;4.36;75.69;97920.16;6159877;23;20025;-84
2020/12/30 04:29:07;;;;;;;37.78;22.00;;;;;;;4.35;75.54;97921.09;6186059;23;20028;-85
2020/12/30 04:31:36;;;;;;;34.78;21.20;;;;;;;4.34;75.66;97924.66;6159780;23;20025;-85
2020/12/30 04:34:04;;;;;;;49.58;24.92;;;;;;;4.33;75.62;97923.78;6185906;23;20325;-85
2020/12/30 04:36:30;;;;;;;36.85;22.25;;;;;;;4.34;75.71;97915.03;6185607;23;20032;-85
2020/12/30 04:38:56;;;;;;;41.80;23.15;;;;;;;4.33;76.18;97915.16;6185484;23;20476;-84
2020/12/30 04:41:31;;;;;;;43.13;23.35;;;;;;;4.32;75.39;97927.34;6186015;23;20044;-85
2020/12/30 04:43:59;;;;;;;39.83;21.98;;;;;;;4.32;75.50;97918.66;6184537;23;20376;-84
2020/12/30 04:46:27;;;;;;;41.40;22.27;;;;;;;4.33;75.82;97922.97;6185690;23;20468;-85
2020/12/30 04:48:58;;;;;;;40.83;22.92;;;;;;;4.31;75.78;97923.06;6185617;23;20024;-85
2020/12/30 04:51:26;;;;;;;44.35;23.65;;;;;;;4.32;75.72;97931.69;6159889;23;20048;-85
2020/12/30 04:54:00;;;;;;;37.70;22.60;;;;;;;4.29;75.50;97922.31;6159715;23;20021;-85
2020/12/30 04:56:41;;;;;;;40.03;21.08;;;;;;;4.26;75.37;97927.72;6185951;23;20356;-85
2020/12/30 04:59:13;;;;;;;42.63;23.23;;;;;;;4.27;75.59;97925.00;6185513;23;20025;-85
2020/12/30 05:01:51;;;;;;;42.92;23.20;;;;;;;4.25;75.55;97932.09;6159749;23;20025;-85
2020/12/30 05:04:20;;;;;;;42.42;23.90;;;;;;;4.26;75.59;97931.16;6159713;23;20032;-85
2020/12/30 05:06:49;;;;;;;39.53;22.73;;;;;;;4.25;75.84;97932.09;6186010;23;20044;-85
2020/12/30 05:09:20;;;;;;;40.35;23.02;;;;;;;4.24;75.31;97926.97;6185588;23;20025;-85
2020/12/30 05:11:47;;;;;;;40.08;23.20;;;;;;;4.24;75.92;97943.44;6159765;23;20032;-85
2020/12/30 05:14:13;;;;;;;38.35;22.35;;;;;;;4.23;75.92;97925.28;6159534;23;20020;-85
2020/12/30 05:16:39;;;;;;;43.95;23.65;;;;;;;4.21;75.87;97925.38;6159841;23;20021;-84
2020/12/30 05:19:05;;;;;;;39.40;23.38;;;;;;;4.20;75.76;97939.34;6159652;23;20025;-85
2020/12/30 05:21:32;;;;;;;43.08;23.50;;;;;;;4.19;75.54;97939.44;6159899;23;20029;-85
2020/12/30 05:23:58;;;;;;;42.25;23.00;;;;;;;4.15;75.47;97937.00;6185502;23;20028;-85
2020/12/30 05:26:27;;;;;;;44.58;23.92;;;;;;;4.13;75.82;97940.63;6185924;23;20021;-85
2020/12/30 05:28:53;;;;;;;38.83;21.77;;;;;;;4.12;75.86;97946.78;6185749;23;20021;-84
2020/12/30 05:31:19;;;;;;;47.42;23.92;;;;;;;4.11;75.72;97943.31;6186265;23;20025;-84
2020/12/30 05:33:46;;;;;;;40.33;22.88;;;;;;;4.09;75.68;97941.75;6159241;23;20017;-85
2020/12/30 05:36:14;;;;;;;40.50;22.38;;;;;;;4.07;75.80;97948.81;6185866;23;20325;-85
2020/12/30 05:38:40;;;;;;;36.13;21.45;;;;;;;4.06;76.08;97947.97;6185271;23;20025;-85
2020/12/30 05:41:32;;;;;;;40.17;22.58;;;;;;;4.01;75.04;97956.03;6185748;23;20021;-84
2020/12/30 05:44:18;;;;;;;42.83;21.58;;;;;;;4.01;75.39;97963.84;6181308;23;20021;-84
2020/12/30 05:46:45;;;;;;;40.45;22.73;;;;;;;4.01;75.56;97963.84;6186060;23;20027;-84
2020/12/30 05:49:31;;;;;;;41.35;22.95;;;;;;;3.98;75.23;97960.59;6160487;23;20032;-85
2020/12/30 05:52:25;;;;;;;44.33;23.58;;;;;;;3.95;75.38;97953.81;6163036;23;20413;-85
2020/12/30 05:54:59;;;;;;;39.13;22.67;;;;;;;3.95;75.52;97968.59;6161544;23;20080;-84
2020/12/30 05:57:35;;;;;;;42.78;23.45;;;;;;;3.94;75.62;97961.72;6187209;23;20060;-84
2020/12/30 06:00:13;;;;;;;40.60;22.77;;;;;;;3.91;75.63;97965.34;6187559;23;20032;-85
2020/12/30 06:02:42;;;;;;;39.20;23.25;;;;;;;3.91;76.12;97966.19;6161220;23;20021;-84
2020/12/30 06:05:12;;;;;;;45.80;23.88;;;;;;;3.90;75.94;97961.88;6161454;23;20021;-85
2020/12/30 06:07:40;;;;;;;44.13;24.75;;;;;;;3.91;76.24;97962.72;6187484;23;20032;-85
2020/12/30 06:10:09;;;;;;;47.08;24.92;;;;;;;3.88;75.88;97965.50;6184055;23;20032;-83
2020/12/30 06:12:42;;;;;;;42.78;24.73;;;;;;;3.89;76.06;97973.22;6165126;23;20017;-84
2020/12/30 06:15:12;;;;;;;45.30;25.38;;;;;;;3.87;76.10;97967.28;6192710;23;20021;-85
2020/12/30 06:17:50;;;;;;;43.85;23.45;;;;;;;3.86;76.15;97968.22;6165041;23;20024;-84
2020/12/30 06:20:25;;;;;;;46.08;25.23;;;;;;;3.85;75.76;97969.13;6166942;23;20028;-84
2020/12/30 06:23:10;;;;;;;44.15;24.63;;;;;;;3.85;76.17;97969.13;6191549;23;20329;-85
2020/12/30 06:25:45;;;;;;;40.97;23.65;;;;;;;3.86;76.05;97977.78;6168608;23;20032;-85
2020/12/30 06:28:20;;;;;;;45.03;23.75;;;;;;;3.84;75.88;97982.22;6165207;23;20021;-85
2020/12/30 06:30:53;;;;;;;41.22;22.77;;;;;;;3.85;76.03;97981.31;6166292;23;20028;-86
2020/12/30 06:33:23;;;;;;;40.20;23.20;;;;;;;3.85;76.17;97976.13;6164160;23;20467;-86
2020/12/30 06:35:55;;;;;;;44.60;23.83;;;;;;;3.85;75.93;97989.13;6193231;23;20483;-86
2020/12/30 06:38:26;;;;;;;44.45;24.38;;;;;;;3.87;76.21;97992.47;6192268;23;20021;-85
2020/12/30 06:40:57;;;;;;;41.75;23.20;;;;;;;3.86;76.52;97990.81;6164442;23;20021;-84
2020/12/30 06:43:54;;;;;;;36.33;22.00;;;;;;;3.83;75.84;97998.78;6166198;23;20023;-85
2020/12/30 06:46:23;;;;;;;39.10;23.40;;;;;;;3.85;76.14;97992.56;6165160;23;20025;-85
2020/12/30 06:48:57;;;;;;;40.08;23.80;;;;;;;3.86;76.15;98002.06;6166470;23;20028;-86
2020/12/30 06:51:35;;;;;;;38.95;23.42;;;;;;;3.87;76.28;98005.47;6165651;23;20055;-84
2020/12/30 06:54:01;;;;;;;42.83;22.63;;;;;;;3.89;76.50;98006.25;6166351;23;20021;-85
2020/12/30 06:56:36;;;;;;;42.65;23.80;;;;;;;3.87;76.56;98016.75;6192925;23;20021;-84
2020/12/30 06:59:06;;;;;;;40.42;21.95;;;;;;;3.90;76.72;98020.94;6166713;23;20028;-84
2020/12/30 07:01:59;;;;;;;44.17;23.02;;;;;;;3.88;76.06;98021.03;6166139;23;20395;-84
2020/12/30 07:04:29;;;;;;;40.03;22.20;;;;;;;3.93;76.29;98031.19;6168069;23;20025;-85
2020/12/30 07:06:56;;;;;;;39.28;22.38;;;;;;;3.95;76.52;98039.72;6165026;23;20025;-84
2020/12/30 07:09:39;;;;;;;41.83;22.20;;;;;;;3.91;76.15;98038.22;6165301;23;20031;-84
2020/12/30 07:12:07;;;;;;;42.38;22.75;;;;;;;3.95;76.44;98044.94;6167839;23;20020;-84
2020/12/30 07:14:36;;;;;;;38.85;23.15;;;;;;;3.95;76.40;98042.31;6164472;23;20025;-85
2020/12/30 07:17:04;;;;;;;34.97;20.45;;;;;;;3.95;76.58;98046.69;6193626;23;20022;-83
2020/12/30 07:19:33;;;;;;;38.28;23.38;;;;;;;3.95;76.53;98050.13;6189800;23;20092;-84
2020/12/30 07:22:06;;;;;;;36.25;20.40;;;;;;;3.95;76.06;98050.13;6188606;23;20025;-84
2020/12/30 07:24:41;;;;;;;;;;;;;;;3.97;75.67;98053.50;6194386;23;20025;-84
2020/12/30 07:27:11;;;;;;;36.55;21.05;;;;;;;4.01;76.22;98049.78;6191028;23;19917;-85
2020/12/30 07:29:40;;;;;;;43.42;21.63;;;;;;;4.00;76.47;98050.69;6165747;23;20029;-84
2020/12/30 07:32:07;;;;;;;38.28;22.33;;;;;;;3.98;76.46;98057.78;6165479;23;20024;-84
2020/12/30 07:34:38;;;;;;;36.72;21.27;;;;;;;3.97;76.44;98070.88;6167530;23;20029;-84
2020/12/30 07:37:05;;;;;;;36.97;22.75;;;;;;;3.95;76.20;98060.56;6169118;23;20025;-85
2020/12/30 07:39:40;;;;;;;44.30;24.30;;;;;;;3.92;75.94;98065.91;6190687;23;20052;-84
2020/12/30 07:42:06;;;;;;;38.50;22.58;;;;;;;3.90;76.48;98068.59;6195871;23;20372;-84
2020/12/30 07:44:33;;;;;;;40.67;21.35;;;;;;;3.91;76.56;98074.66;6196447;23;20333;-84
2020/12/30 07:47:07;;;;;;;41.28;22.77;;;;;;;3.87;76.65;98074.00;6190577;23;20456;-83
2020/12/30 07:49:33;;;;;;;34.50;21.48;;;;;;;3.88;76.68;98078.28;6194551;23;20029;-84
2020/12/30 07:52:00;;;;;;;33.35;20.90;;;;;;;3.88;77.01;98088.69;6163467;23;20020;-82
2020/12/30 07:54:27;;;;;;;36.53;20.63;;;;;;;3.89;77.26;98092.16;6193975;23;20044;-84
2020/12/30 07:57:10;;;;;;;34.20;20.42;;;;;;;3.88;76.87;98098.25;6191061;23;20025;-84
2020/12/30 07:59:38;;;;;;;36.80;21.42;;;;;;;3.93;76.84;98093.66;6193094;23;20021;-84
2020/12/30 08:02:05;;;;;;;39.75;20.08;;;;;;;3.95;77.08;98101.34;6166749;23;20032;-84
2020/12/30 08:04:34;;;;;;;33.78;19.63;;;;;;;3.97;77.14;98108.19;6193242;23;20040;-84
2020/12/30 08:07:05;;;;;;;35.38;20.55;;;;;;;3.97;76.44;98100.38;6188770;23;20025;-85
2020/12/30 08:09:33;;;;;;;35.33;20.48;;;;;;;4.00;76.92;98109.75;6161986;23;20482;-84
2020/12/30 08:12:05;;;;;;;32.97;19.80;;;;;;;4.01;77.07;98112.25;6162078;23;20032;-84
2020/12/30 08:14:33;;;;;;;31.83;19.35;;;;;;;4.04;77.04;98127.72;6165811;23;20040;-84
2020/12/30 08:17:06;;;;;;;34.58;20.27;;;;;;;4.05;77.18;98125.97;6163254;23;20025;-85
2020/12/30 08:19:37;;;;;;;37.67;21.23;;;;;;;4.10;77.05;98128.28;6166606;23;20092;-84
2020/12/30 08:22:11;;;;;;;31.35;20.00;;;;;;;4.11;76.85;98132.59;6166944;23;20031;-85
2020/12/30 08:24:39;;;;;;;39.28;19.65;;;;;;;4.15;77.19;98132.31;6194311;23;20073;-85
2020/12/30 08:27:11;;;;;;;32.30;18.85;;;;;;;4.18;76.98;98133.91;6192412;23;20468;-83
2020/12/30 08:29:54;;;;;;;29.40;18.75;;;;;;;4.22;77.31;98139.78;6170812;23;20180;-83
2020/12/30 08:32:26;;;;;;;32.70;19.83;;;;;;;4.24;77.14;98144.00;6190100;23;20017;-85
2020/12/30 08:34:59;;;;;;;34.10;19.98;;;;;;;4.26;76.80;98141.28;6191256;23;20025;-84
2020/12/30 08:37:33;;;;;;;34.38;19.40;;;;;;;4.29;77.18;98144.56;6194223;23;20028;-83
2020/12/30 08:40:18;;;;;;;32.00;20.38;;;;;;;4.28;76.28;98150.69;6165485;23;20031;-83
2020/12/30 08:43:20;;;;;;;37.83;20.70;;;;;;;4.33;76.31;98152.19;6163305;23;20024;-84
2020/12/30 08:45:49;;;;;;;36.97;20.65;;;;;;;4.37;76.75;98148.50;6192767;23;20021;-84
2020/12/30 08:48:16;;;;;;;34.55;19.92;;;;;;;4.39;76.91;98151.84;6166855;23;20032;-85
2020/12/30 08:50:43;;;;;;;35.47;21.73;;;;;;;4.41;76.89;98160.41;6164156;23;20021;-84
2020/12/30 08:53:11;;;;;;;39.65;21.83;;;;;;;4.43;77.18;98164.63;6166401;23;20013;-85
2020/12/30 08:55:39;;;;;;;30.95;19.70;;;;;;;4.44;76.92;98165.44;6191939;23;20025;-84
2020/12/30 08:58:06;;;;;;;35.35;21.85;;;;;;;4.47;77.17;98169.63;6191965;23;20021;-85
2020/12/30 09:00:34;;;;;;;34.67;20.75;;;;;;;4.48;76.91;98169.53;6163560;23;20021;-85
2020/12/30 09:03:14;;;;;;;35.58;20.30;;;;;;;4.46;76.30;98168.81;6189756;23;20028;-85
2020/12/30 09:05:49;;;;;;;37.65;20.52;;;;;;;4.52;77.05;98180.66;6164849;23;20460;-84
2020/12/30 09:08:23;;;;;;;34.15;20.38;;;;;;;4.52;76.45;98178.88;6192197;23;20447;-85
2020/12/30 09:10:53;;;;;;;38.17;21.98;;;;;;;4.57;77.02;98170.78;6161809;23;20337;-86
2020/12/30 09:13:29;;;;;;;38.25;22.42;;;;;;;4.56;76.50;98176.91;6166410;23;20021;-85
2020/12/30 09:16:02;;;;;;;33.83;21.35;;;;;;;4.56;76.73;98185.56;6191556;23;20029;-86
2020/12/30 09:18:30;;;;;;;41.03;22.85;;;;;;;4.60;76.81;98185.41;6160321;23;20052;-85
2020/12/30 09:20:57;;;;;;;42.40;22.70;;;;;;;4.61;77.00;98187.09;6161720;23;20021;-84
2020/12/30 09:23:25;;;;;;;43.33;24.27;;;;;;;4.60;76.97;98183.63;6193527;23;20021;-84
2020/12/30 09:25:51;;;;;;;40.65;22.40;;;;;;;4.62;77.32;98188.75;6192285;23;20029;-84
2020/12/30 09:28:21;;;;;;;42.47;24.23;;;;;;;4.63;77.19;98193.88;6166895;23;20025;-85
2020/12/30 09:30:51;;;;;;;43.67;23.05;;;;;;;4.64;76.95;98192.94;6192191;23;20036;-86
2020/12/30 09:33:22;;;;;;;38.65;23.42;;;;;;;4.65;76.55;98196.41;6196570;23;20021;-85
2020/12/30 09:35:49;;;;;;;44.55;24.42;;;;;;;4.67;76.90;98191.91;6167361;23;20025;-85
2020/12/30 09:38:17;;;;;;;44.45;25.05;;;;;;;4.68;77.02;98191.03;6190354;23;20084;-87
2020/12/30 09:40:45;;;;;;;41.15;22.95;;;;;;;4.69;77.08;98195.28;6168306;23;20021;-86
2020/12/30 09:43:11;;;;;;;41.83;23.65;;;;;;;4.69;77.14;98185.72;6165630;23;20021;-85
2020/12/30 09:45:38;;;;;;;41.13;23.58;;;;;;;4.72;77.24;98199.50;6194701;23;20025;-86
2020/12/30 09:48:20;;;;;;;39.20;23.55;;;;;;;4.73;77.00;98193.34;6196669;23;20044;-86
2020/12/30 09:50:52;;;;;;;44.20;22.95;;;;;;;4.76;76.99;98191.41;6191086;23;20451;-87
2020/12/30 09:53:18;;;;;;;36.97;21.33;;;;;;;4.79;77.63;98199.03;6164971;23;20032;-85
2020/12/30 09:55:46;;;;;;;42.40;23.20;;;;;;;4.83;77.36;98199.72;6193519;23;20025;-85
2020/12/30 09:58:13;;;;;;;42.63;23.98;;;;;;;4.85;77.48;98204.84;6165847;23;20352;-85
2020/12/30 10:00:39;;;;;;;36.35;22.88;;;;;;;4.88;77.64;98199.44;6166798;23;20032;-85
2020/12/30 10:03:06;;;;;;;40.50;23.95;;;;;;;4.89;77.37;98201.09;6168344;23;20028;-85
2020/12/30 10:05:32;;;;;;;40.17;23.55;;;;;;;4.92;77.60;98198.31;6164220;23;20348;-85
2020/12/30 10:07:59;;;;;;;34.55;21.77;;;;;;;4.95;77.43;98198.16;6164324;23;20096;-85
2020/12/30 10:10:25;;;;;;;35.70;23.05;;;;;;;4.97;77.43;98196.28;6190820;23;20044;-85
2020/12/30 10:12:51;;;;;;;39.90;23.40;;;;;;;5.00;77.38;98196.09;6191586;23;20017;-85
2020/12/30 10:15:20;;;;;;;40.47;23.30;;;;;;;5.02;77.37;98199.47;6193340;23;20032;-85
2020/12/30 10:17:47;;;;;;;39.95;23.75;;;;;;;5.05;77.27;98203.66;6192073;23;20027;-86
2020/12/30 10:20:17;;;;;;;40.03;23.05;;;;;;;5.07;77.42;98202.63;6191723;23;20025;-85
2020/12/30 10:22:45;;;;;;;36.05;21.45;;;;;;;5.10;77.62;98201.63;6162655;23;20028;-85
2020/12/30 10:25:12;;;;;;;42.92;25.25;;;;;;;5.12;77.34;98207.56;6190503;23;20016;-85
2020/12/30 10:27:40;;;;;;;36.50;23.35;;;;;;;5.17;77.40;98202.09;6195552;23;20021;-86
2020/12/30 10:30:07;;;;;;;37.40;23.73;;;;;;;5.18;77.38;98217.66;6195532;23;20351;-85
2020/12/30 10:32:37;;;;;;;36.80;22.88;;;;;;;5.21;77.22;98214.84;6167945;23;20080;-85
2020/12/30 10:35:05;;;;;;;35.85;23.52;;;;;;;5.24;77.27;98207.78;6194395;23;20032;-85
2020/12/30 10:37:32;;;;;;;35.42;21.98;;;;;;;5.26;77.31;98209.34;6191832;23;20025;-86
2020/12/30 10:39:59;;;;;;;41.60;23.48;;;;;;;5.28;76.98;98211.88;6165673;23;20028;-85
2020/12/30 10:42:27;;;;;;;34.13;21.35;;;;;;;5.30;77.11;98221.28;6165528;23;20025;-85
2020/12/30 10:44:53;;;;;;;36.58;22.08;;;;;;;5.32;77.14;98215.97;6191539;23;20025;-86
2020/12/30 10:47:19;;;;;;;36.60;22.00;;;;;;;5.34;77.08;98217.56;6168029;23;20457;-85
2020/12/30 10:49:47;;;;;;;36.08;21.58;;;;;;;5.35;77.23;98221.84;6194420;23;20024;-85
2020/12/30 10:52:16;;;;;;;37.90;21.92;;;;;;;5.38;77.13;98222.59;6164628;23;20073;-85
2020/12/30 10:54:45;;;;;;;34.20;20.58;;;;;;;5.39;77.31;98226.88;6169342;23;20020;-85
2020/12/30 10:57:13;;;;;;;37.20;20.63;;;;;;;5.41;77.17;98217.19;6193649;23;20024;-84
2020/12/30 10:59:39;;;;;;;33.92;21.00;;;;;;;5.43;77.16;98220.53;6165580;23;20021;-85
2020/12/30 11:02:06;;;;;;;38.90;22.60;;;;;;;5.43;77.20;98221.41;6190881;23;20024;-85
2020/12/30 11:04:34;;;;;;;32.20;20.25;;;;;;;5.44;76.88;98212.63;6165377;23;20032;-85
2020/12/30 11:07:04;;;;;;;37.72;21.00;;;;;;;5.46;77.23;98221.19;6166547;23;20475;-86
2020/12/30 11:09:30;;;;;;;33.10;20.77;;;;;;;5.48;77.26;98213.28;6166560;23;20021;-86
2020/12/30 11:11:56;;;;;;;34.42;20.00;;;;;;;5.51;77.46;98218.31;6191426;23;20021;-86
2020/12/30 11:14:24;;;;;;;33.08;20.05;;;;;;;5.53;77.32;98219.03;6166096;23;20021;-85
2020/12/30 11:16:51;;;;;;;33.10;20.52;;;;;;;5.55;77.41;98214.59;6191538;23;20100;-86
2020/12/30 11:19:17;;;;;;;30.92;20.25;;;;;;;5.57;77.05;98217.09;6164736;23;20021;-86
2020/12/30 11:21:50;;;;;;;30.15;19.42;;;;;;;5.57;76.72;98214.50;6190589;23;20361;-86
2020/12/30 11:24:17;;;;;;;31.80;20.75;;;;;;;5.62;77.22;98209.81;6163777;23;20024;-85
2020/12/30 11:26:44;;;;;;;35.03;22.05;;;;;;;5.65;77.23;98221.84;6185986;23;20028;-86
2020/12/30 11:29:11;;;;;;;31.83;20.83;;;;;;;5.67;77.59;98209.53;6189406;23;20460;-85
2020/12/30 11:31:39;;;;;;;32.35;21.35;;;;;;;5.71;77.36;98213.63;6165638;23;20025;-85
2020/12/30 11:34:08;;;;;;;40.47;23.42;;;;;;;5.70;76.91;98207.59;6162263;23;20028;-85
2020/12/30 11:36:36;;;;;;;34.47;21.50;;;;;;;5.73;77.09;98202.16;6166065;23;20049;-85